Time;durP1;ratioP1;P1;durP2;ratioP2;P2;SDS_P1;SDS_P2;PMS_P1;PMS_P2;Temp;Humidity;BMP_temperature;BMP_pressure;BME280_temperature;BME280_humidity;BME280_pressure;Samples;Min_cycle;Max_cycle;Signal;HPM_P1;HPM_P2
2023/12/09 00:00:51;;;;;;;26.70;8.07;;;;;;;5.86;100.00;101006.59;5028175;28;20980;-72
2023/12/09 00:03:16;;;;;;;30.08;7.80;;;;;;;5.87;100.00;101014.38;5035550;28;20519;-72
2023/12/09 00:05:41;;;;;;;21.80;7.30;;;;;;;5.88;100.00;101005.44;5038571;28;20035;-72
2023/12/09 00:08:07;;;;;;;22.63;6.85;;;;;;;5.87;100.00;101001.16;5039842;28;20033;-72
2023/12/09 00:10:32;;;;;;;23.15;6.68;;;;;;;5.90;100.00;100997.34;5038125;28;20022;-72
2023/12/09 00:12:57;;;;;;;24.08;8.07;;;;;;;5.91;100.00;101005.13;5035368;28;20519;-72
2023/12/09 00:15:23;;;;;;;20.33;7.40;;;;;;;5.91;100.00;100999.00;5039184;28;20106;-71
2023/12/09 00:17:48;;;;;;;19.80;5.72;;;;;;;5.89;100.00;100999.19;5042787;28;20145;-71
2023/12/09 00:20:14;;;;;;;21.45;7.05;;;;;;;5.88;100.00;100994.84;5040778;28;20017;-71
2023/12/09 00:22:41;;;;;;;19.10;6.50;;;;;;;5.84;100.00;100992.69;5040258;28;20076;-72
2023/12/09 00:25:07;;;;;;;23.80;7.93;;;;;;;5.79;100.00;100987.91;5044758;28;20033;-71
2023/12/09 00:27:32;;;;;;;21.85;6.05;;;;;;;5.78;100.00;100988.06;5040061;28;20545;-71
2023/12/09 00:29:57;;;;;;;21.48;7.25;;;;;;;5.76;100.00;100990.03;5040347;28;20036;-71
2023/12/09 00:32:23;;;;;;;27.02;10.40;;;;;;;5.80;100.00;101000.13;5042278;28;20491;-71
2023/12/09 00:34:48;;;;;;;23.58;6.30;;;;;;;5.76;100.00;100992.66;5037745;28;20484;-71
2023/12/09 00:37:13;;;;;;;22.92;6.80;;;;;;;5.82;100.00;101008.75;5031374;28;20069;-71
2023/12/09 00:39:39;;;;;;;21.27;7.65;;;;;;;5.79;100.00;101003.78;5022546;28;20029;-72
2023/12/09 00:42:04;;;;;;;24.60;8.18;;;;;;;5.77;100.00;100997.81;5045664;28;20518;-72
2023/12/09 00:44:29;;;;;;;17.83;6.28;;;;;;;5.76;100.00;100996.16;5040740;28;20120;-71
2023/12/09 00:46:55;;;;;;;22.48;8.02;;;;;;;5.75;100.00;101004.25;5040297;28;20044;-71
2023/12/09 00:49:20;;;;;;;22.85;5.57;;;;;;;5.76;100.00;101000.63;5037377;28;20033;-71
2023/12/09 00:51:45;;;;;;;26.05;7.00;;;;;;;5.76;100.00;101008.56;5035849;28;20060;-71
2023/12/09 00:54:11;;;;;;;21.48;7.72;;;;;;;5.76;100.00;101004.09;5043190;28;20063;-71
2023/12/09 00:56:36;;;;;;;25.08;8.13;;;;;;;5.76;100.00;101000.63;5039378;28;20067;-71
2023/12/09 00:59:02;;;;;;;30.38;7.22;;;;;;;5.72;100.00;101002.75;5042877;28;20120;-71
2023/12/09 01:01:28;;;;;;;18.77;6.95;;;;;;;5.65;100.00;100977.94;5041636;28;20021;-71
2023/12/09 01:03:53;;;;;;;22.30;6.38;;;;;;;5.73;100.00;101015.00;5041332;28;20036;-72
2023/12/09 01:06:19;;;;;;;28.35;8.65;;;;;;;5.63;100.00;100980.75;5031015;28;20033;-71
2023/12/09 01:08:44;;;;;;;21.27;7.18;;;;;;;5.70;100.00;100997.63;5030744;28;20477;-72
2023/12/09 01:11:09;;;;;;;24.98;7.75;;;;;;;5.71;100.00;100993.16;5030501;28;20029;-71
2023/12/09 01:13:35;;;;;;;19.48;6.75;;;;;;;5.70;100.00;100984.38;5030693;28;20053;-72
2023/12/09 01:16:00;;;;;;;19.02;7.07;;;;;;;5.68;100.00;100999.59;5032038;28;20090;-72
2023/12/09 01:18:25;;;;;;;25.77;5.68;;;;;;;5.64;100.00;101002.75;5038849;28;20025;-72
2023/12/09 01:20:51;;;;;;;21.52;7.07;;;;;;;5.57;100.00;100993.78;5030824;28;20548;-71
2023/12/09 01:23:16;;;;;;;22.35;9.25;;;;;;;5.60;100.00;100988.16;5023918;28;20495;-72
2023/12/09 01:25:41;;;;;;;25.40;7.32;;;;;;;5.57;100.00;100994.59;5021000;28;20444;-72
2023/12/09 01:28:07;;;;;;;20.38;6.13;;;;;;;5.45;100.00;100978.22;5038476;28;20392;-71
2023/12/09 01:30:33;;;;;;;20.67;5.65;;;;;;;5.52;100.00;100994.25;5035437;28;20033;-72
2023/12/09 01:32:58;;;;;;;17.17;5.75;;;;;;;5.49;100.00;100994.59;5031450;28;20096;-71
2023/12/09 01:35:23;;;;;;;22.75;6.18;;;;;;;5.40;100.00;100995.56;5040174;28;20040;-71
2023/12/09 01:37:49;;;;;;;22.77;9.20;;;;;;;5.39;100.00;100993.88;5021787;28;20052;-72
2023/12/09 01:40:15;;;;;;;24.13;7.03;;;;;;;5.38;100.00;100993.06;5041190;28;20036;-72
2023/12/09 01:42:42;;;;;;;23.35;7.28;;;;;;;5.37;100.00;100999.34;5036764;28;20025;-72
2023/12/09 01:45:08;;;;;;;13.68;6.65;;;;;;;5.35;100.00;100990.72;5044722;28;20470;-71
2023/12/09 01:47:35;;;;;;;19.27;7.13;;;;;;;5.37;100.00;100988.75;5040066;28;20041;-71
2023/12/09 01:50:02;;;;;;;24.00;6.78;;;;;;;5.41;100.00;100998.03;5020672;28;20032;-71
2023/12/09 01:52:28;;;;;;;17.30;5.90;;;;;;;5.44;100.00;100996.88;5045197;28;20033;-71
2023/12/09 01:54:54;;;;;;;19.05;6.88;;;;;;;5.45;100.00;100977.38;5037675;28;20054;-71
2023/12/09 01:57:19;;;;;;;27.60;6.93;;;;;;;5.40;100.00;100969.94;5038950;28;20125;-71
2023/12/09 01:59:44;;;;;;;18.02;5.65;;;;;;;5.41;100.00;100973.41;5040692;28;20029;-71
2023/12/09 02:02:10;;;;;;;18.48;6.32;;;;;;;5.41;100.00;100973.41;5044228;28;20032;-71
2023/12/09 02:04:35;;;;;;;18.42;5.75;;;;;;;5.37;100.00;100953.53;5039148;28;20029;-71
2023/12/09 02:07:01;;;;;;;16.13;5.88;;;;;;;5.38;100.00;100958.69;5035412;28;20076;-71
2023/12/09 02:09:26;;;;;;;18.60;6.93;;;;;;;5.41;100.00;100961.00;5041600;28;20106;-72
2023/12/09 02:11:59;;;;;;;17.75;5.65;;;;;;;5.34;100.00;100941.47;5037055;28;20472;-72
2023/12/09 02:14:32;;;;;;;20.67;7.07;;;;;;;5.43;100.00;100950.25;5038065;28;20064;-71
2023/12/09 02:17:10;;;;;;;20.25;5.68;;;;;;;5.46;100.00;100964.00;5038329;28;20020;-71
2023/12/09 02:19:36;;;;;;;20.33;9.27;;;;;;;5.49;100.00;100950.44;5035491;28;20021;-68
2023/12/09 02:22:04;;;;;;;18.88;4.88;;;;;;;5.49;100.00;100945.16;5033899;28;20111;-68
2023/12/09 02:24:30;;;;;;;21.92;7.82;;;;;;;5.32;100.00;100932.03;5039546;28;20033;-69
2023/12/09 02:27:04;;;;;;;17.98;6.30;;;;;;;5.33;100.00;100928.41;5046630;28;20469;-68
2023/12/09 02:29:34;;;;;;;18.08;5.70;;;;;;;5.28;100.00;100927.06;5042604;28;20029;-69
2023/12/09 02:32:04;;;;;;;18.73;5.47;;;;;;;5.39;100.00;100951.56;5032232;28;20032;-69
2023/12/09 02:34:31;;;;;;;18.58;5.25;;;;;;;5.30;100.00;100936.66;5046776;28;20035;-68
2023/12/09 02:36:57;;;;;;;23.92;5.60;;;;;;;5.32;100.00;100951.38;5035987;28;20091;-69
2023/12/09 02:39:23;;;;;;;21.88;6.20;;;;;;;5.27;100.00;100949.22;5038962;28;20491;-69
2023/12/09 02:41:49;;;;;;;20.48;6.00;;;;;;;5.23;100.00;100947.03;5040527;28;20031;-69
2023/12/09 02:44:15;;;;;;;21.40;6.63;;;;;;;5.07;100.00;100923.19;5033879;28;20033;-68
2023/12/09 02:46:40;;;;;;;20.92;7.30;;;;;;;5.19;100.00;100943.91;5033213;28;20037;-68
2023/12/09 02:49:06;;;;;;;17.33;5.50;;;;;;;5.01;100.00;100911.44;5043341;28;20112;-68
2023/12/09 02:51:31;;;;;;;18.25;6.43;;;;;;;5.05;100.00;100903.00;5014067;28;20126;-68
2023/12/09 02:53:56;;;;;;;21.88;5.95;;;;;;;4.98;100.00;100901.19;5023953;28;20068;-68
2023/12/09 02:56:22;;;;;;;19.25;5.63;;;;;;;5.13;100.00;100919.91;5038862;28;20040;-68
2023/12/09 02:58:47;;;;;;;20.73;6.13;;;;;;;4.99;100.00;100903.66;5037612;28;20033;-69
2023/12/09 03:01:12;;;;;;;21.05;7.65;;;;;;;5.12;100.00;100927.00;5023849;28;20075;-68
2023/12/09 03:03:38;;;;;;;25.92;6.10;;;;;;;4.94;100.00;100897.19;5027955;28;20091;-68
2023/12/09 03:06:03;;;;;;;18.02;6.50;;;;;;;5.10;100.00;100917.59;5037054;28;20158;-68
2023/12/09 03:08:29;;;;;;;20.55;6.72;;;;;;;5.18;100.00;100914.97;5042454;28;20038;-68
2023/12/09 03:10:55;;;;;;;16.02;4.95;;;;;;;5.21;100.00;100912.84;5041497;28;20383;-68
2023/12/09 03:13:20;;;;;;;18.50;7.22;;;;;;;5.04;100.00;100874.13;5040206;28;20059;-68
2023/12/09 03:15:45;;;;;;;21.77;6.32;;;;;;;5.19;100.00;100901.59;5038670;28;20037;-68
2023/12/09 03:18:11;;;;;;;19.77;5.80;;;;;;;5.17;100.00;100890.34;5033166;28;20523;-68
2023/12/09 03:20:36;;;;;;;17.70;4.65;;;;;;;5.00;100.00;100875.41;5041958;28;20040;-68
2023/12/09 03:23:01;;;;;;;19.75;6.32;;;;;;;5.14;100.00;100900.44;5032462;28;20053;-68
2023/12/09 03:25:28;;;;;;;20.20;8.15;;;;;;;5.11;100.00;100892.78;5040502;28;20025;-68
2023/12/09 03:27:53;;;;;;;23.27;6.78;;;;;;;5.12;100.00;100908.50;5034668;28;20164;-69
2023/12/09 03:30:18;;;;;;;28.38;8.13;;;;;;;4.97;100.00;100865.16;5030680;28;20035;-68
2023/12/09 03:32:44;;;;;;;27.48;8.57;;;;;;;5.13;100.00;100909.31;5027131;28;21056;-68
2023/12/09 03:35:12;;;;;;;18.92;6.50;;;;;;;4.95;100.00;100869.78;5031487;28;20993;-68
2023/12/09 03:37:37;;;;;;;15.95;4.55;;;;;;;5.11;100.00;100920.06;5030555;28;20473;-68
2023/12/09 03:40:03;;;;;;;17.73;5.63;;;;;;;5.14;100.00;100895.97;5046470;28;20033;-68
2023/12/09 03:42:29;;;;;;;22.60;5.47;;;;;;;5.19;100.00;100906.06;5012502;28;20045;-69
2023/12/09 03:44:54;;;;;;;24.05;7.60;;;;;;;5.09;100.00;100861.25;5041540;28;20045;-69
2023/12/09 03:47:19;;;;;;;25.58;5.28;;;;;;;5.08;100.00;100872.78;5036374;28;20126;-69
2023/12/09 03:49:45;;;;;;;16.45;6.00;;;;;;;5.23;100.00;100899.44;5040240;28;20061;-69
2023/12/09 03:52:10;;;;;;;17.27;5.78;;;;;;;5.07;100.00;100865.03;5033020;28;20079;-68
2023/12/09 03:54:37;;;;;;;18.08;5.30;;;;;;;5.09;100.00;100855.97;5040948;28;20021;-68
2023/12/09 03:57:03;;;;;;;26.05;5.35;;;;;;;5.25;100.00;100885.06;5045568;28;20056;-68
2023/12/09 03:59:28;;;;;;;30.88;6.80;;;;;;;5.23;100.00;100884.41;5035850;28;20044;-68
2023/12/09 04:01:53;;;;;;;22.90;5.72;;;;;;;5.10;100.00;100856.78;5045229;28;20131;-69
2023/12/09 04:04:19;;;;;;;17.60;6.20;;;;;;;5.23;100.00;100865.06;5019227;28;20065;-69
2023/12/09 04:06:44;;;;;;;20.05;5.65;;;;;;;5.21;100.00;100865.25;5039377;28;20037;-69
2023/12/09 04:09:10;;;;;;;31.58;8.00;;;;;;;5.03;100.00;100830.16;5042273;28;20079;-69
2023/12/09 04:11:35;;;;;;;15.27;6.68;;;;;;;5.19;100.00;100861.94;5033319;28;20514;-69
2023/12/09 04:14:01;;;;;;;25.15;6.90;;;;;;;5.04;100.00;100830.00;5040033;28;20061;-69
2023/12/09 04:16:26;;;;;;;18.98;5.85;;;;;;;5.00;100.00;100818.13;5038937;28;20510;-69
2023/12/09 04:18:51;;;;;;;17.25;5.15;;;;;;;4.98;100.00;100824.53;5044581;28;20043;-69
2023/12/09 04:21:17;;;;;;;20.77;5.80;;;;;;;5.01;100.00;100832.97;5046632;28;20128;-69
2023/12/09 04:23:43;;;;;;;20.25;5.55;;;;;;;5.09;100.00;100848.03;5036562;28;20388;-69
2023/12/09 04:26:09;;;;;;;15.40;4.75;;;;;;;4.82;100.00;100812.94;5037939;28;20026;-69
2023/12/09 04:28:34;;;;;;;14.48;5.50;;;;;;;4.92;100.00;100835.75;5021307;28;20476;-69
2023/12/09 04:31:00;;;;;;;38.65;9.55;;;;;;;5.01;100.00;100850.66;5037514;28;20029;-69
2023/12/09 04:33:25;;;;;;;16.52;4.72;;;;;;;4.87;100.00;100830.94;5048574;28;20595;-68
2023/12/09 04:35:51;;;;;;;19.08;5.05;;;;;;;4.86;100.00;100820.53;5040103;28;20664;-68
2023/12/09 04:38:16;;;;;;;22.88;4.93;;;;;;;4.86;100.00;100823.19;5048350;28;20151;-68
2023/12/09 04:40:42;;;;;;;23.27;7.35;;;;;;;4.93;100.00;100838.22;5048137;28;20090;-68
2023/12/09 04:43:08;;;;;;;17.92;7.25;;;;;;;4.77;100.00;100804.66;5037998;28;20040;-68
2023/12/09 04:45:33;;;;;;;15.77;4.07;;;;;;;4.79;100.00;100821.19;5031301;28;20093;-69
2023/12/09 04:47:59;;;;;;;20.13;4.78;;;;;;;4.89;100.00;100831.59;5036151;28;20050;-69
2023/12/09 04:50:24;;;;;;;13.95;5.07;;;;;;;4.80;100.00;100812.25;5038116;28;20419;-69
2023/12/09 04:52:50;;;;;;;19.73;5.53;;;;;;;4.79;100.00;100800.03;5034625;28;20048;-68
2023/12/09 04:55:15;;;;;;;22.27;5.80;;;;;;;4.79;100.00;100792.13;5021582;28;20068;-68
2023/12/09 04:57:41;;;;;;;19.00;5.60;;;;;;;4.94;100.00;100813.44;5032654;28;20057;-68
2023/12/09 05:00:07;;;;;;;23.88;7.70;;;;;;;4.93;100.00;100811.81;5021197;28;20049;-69
2023/12/09 05:02:32;;;;;;;16.73;5.53;;;;;;;4.79;100.00;100789.47;5042390;28;20041;-69
2023/12/09 05:04:58;;;;;;;19.05;5.22;;;;;;;4.76;100.00;100783.66;5040233;28;20095;-69
2023/12/09 05:07:26;;;;;;;19.10;6.15;;;;;;;4.74;100.00;100788.28;5041792;28;20033;-69
2023/12/09 05:09:52;;;;;;;20.58;4.78;;;;;;;4.91;100.00;100805.84;5037648;28;20088;-69
2023/12/09 05:12:18;;;;;;;14.55;4.47;;;;;;;4.91;100.00;100802.38;5040706;28;20112;-69
2023/12/09 05:14:43;;;;;;;18.17;4.78;;;;;;;4.79;100.00;100781.56;5038548;28;20140;-69
2023/12/09 05:17:09;;;;;;;15.82;5.10;;;;;;;4.76;100.00;100773.09;5034421;28;20048;-68
2023/12/09 05:19:34;;;;;;;19.08;5.82;;;;;;;4.88;100.00;100789.50;5042358;28;20024;-68
2023/12/09 05:22:00;;;;;;;22.20;4.72;;;;;;;4.71;100.00;100781.50;5036671;28;20510;-68
2023/12/09 05:24:25;;;;;;;20.83;5.72;;;;;;;4.69;100.00;100772.94;5045641;28;20452;-68
2023/12/09 05:26:51;;;;;;;14.48;5.07;;;;;;;4.73;100.00;100779.53;5039547;28;20077;-68
2023/12/09 05:29:16;;;;;;;18.85;6.53;;;;;;;4.74;100.00;100781.19;5017670;28;20029;-69
2023/12/09 05:31:41;;;;;;;20.90;5.53;;;;;;;4.86;100.00;100797.56;5037704;28;20029;-69
2023/12/09 05:34:07;;;;;;;19.80;6.30;;;;;;;4.72;100.00;100769.13;5040939;28;20172;-69
2023/12/09 05:36:33;;;;;;;18.50;7.18;;;;;;;4.63;100.00;100762.16;5016048;28;20037;-69
2023/12/09 05:38:58;;;;;;;17.08;6.35;;;;;;;4.67;100.00;100764.34;5043976;28;20021;-69
2023/12/09 05:41:23;;;;;;;19.00;7.18;;;;;;;4.71;100.00;100775.41;5023229;28;20044;-69
2023/12/09 05:43:49;;;;;;;15.68;5.25;;;;;;;4.81;100.00;100791.94;5018091;28;20036;-69
2023/12/09 05:46:21;;;;;;;14.80;5.57;;;;;;;4.64;100.00;100764.66;5044041;28;20025;-69
2023/12/09 05:48:47;;;;;;;17.45;5.60;;;;;;;4.68;100.00;100768.63;5041890;28;20040;-69
2023/12/09 05:51:13;;;;;;;20.42;5.85;;;;;;;4.63;100.00;100756.88;5039768;28;20564;-69
2023/12/09 05:53:39;;;;;;;22.15;6.10;;;;;;;4.65;100.00;100761.00;5035941;28;20035;-69
2023/12/09 05:56:07;;;;;;;18.48;6.30;;;;;;;4.59;100.00;100759.84;5033196;28;20109;-69
2023/12/09 05:58:33;;;;;;;18.40;4.80;;;;;;;4.57;100.00;100761.00;5044633;28;20040;-69
2023/12/09 06:01:00;;;;;;;13.68;3.78;;;;;;;4.58;100.00;100757.34;5026606;28;20419;-69
2023/12/09 06:03:25;;;;;;;18.75;4.43;;;;;;;4.62;100.00;100761.34;5033228;28;20144;-68
2023/12/09 06:05:51;;;;;;;16.38;4.43;;;;;;;4.74;100.00;100780.34;5034515;28;20108;-68
2023/12/09 06:08:16;;;;;;;15.35;4.72;;;;;;;4.57;100.00;100745.16;5019408;28;20097;-69
2023/12/09 06:10:42;;;;;;;13.20;4.47;;;;;;;4.70;100.00;100766.66;5038545;28;20427;-69
2023/12/09 06:13:07;;;;;;;19.52;6.40;;;;;;;4.74;100.00;100764.50;5017728;28;20068;-69
2023/12/09 06:15:33;;;;;;;20.70;4.63;;;;;;;4.56;100.00;100736.41;5018989;28;20052;-69
2023/12/09 06:17:58;;;;;;;17.27;3.78;;;;;;;4.72;100.00;100748.81;5038540;28;20163;-69
2023/12/09 06:20:23;;;;;;;13.88;5.10;;;;;;;4.70;100.00;100749.97;5042400;28;20025;-68
2023/12/09 06:22:49;;;;;;;11.52;4.47;;;;;;;4.57;100.00;100729.28;5037405;28;20037;-69
2023/12/09 06:25:14;;;;;;;17.45;5.65;;;;;;;4.72;100.00;100740.91;5038701;28;20033;-69
2023/12/09 06:27:39;;;;;;;10.73;3.92;;;;;;;4.71;100.00;100741.06;5036748;28;20040;-69
2023/12/09 06:30:06;;;;;;;22.27;6.28;;;;;;;4.55;100.00;100718.06;5035046;28;20448;-69
2023/12/09 06:32:31;;;;;;;14.85;4.60;;;;;;;4.71;100.00;100736.59;5046043;28;20024;-69
2023/12/09 06:34:56;;;;;;;11.13;4.38;;;;;;;4.55;100.00;100710.13;5037801;28;20416;-69
2023/12/09 06:37:22;;;;;;;13.27;4.10;;;;;;;4.51;100.00;100692.97;5036886;28;20033;-69
2023/12/09 06:39:47;;;;;;;13.25;4.75;;;;;;;4.49;100.00;100697.59;5037814;28;20056;-69
2023/12/09 06:42:13;;;;;;;14.90;5.28;;;;;;;4.57;100.00;100698.44;5040269;28;20056;-69
2023/12/09 06:44:39;;;;;;;18.98;4.75;;;;;;;4.59;100.00;100695.63;5039846;28;20037;-69
2023/12/09 06:47:04;;;;;;;14.00;5.10;;;;;;;4.56;100.00;100677.47;5036684;28;20030;-69
2023/12/09 06:49:30;;;;;;;15.88;4.05;;;;;;;4.61;100.00;100683.06;5012285;28;20037;-69
2023/12/09 06:51:55;;;;;;;15.25;5.22;;;;;;;4.60;100.00;100676.16;5031922;28;20034;-69
2023/12/09 06:54:20;;;;;;;22.17;4.97;;;;;;;4.71;100.00;100694.31;5030476;28;20056;-69
2023/12/09 06:56:46;;;;;;;17.35;5.43;;;;;;;4.75;100.00;100700.94;5034737;28;20037;-69
2023/12/09 06:59:11;;;;;;;18.88;5.90;;;;;;;4.76;100.00;100697.31;5040675;28;20494;-69
2023/12/09 07:01:37;;;;;;;21.63;9.15;;;;;;;4.76;100.00;100683.28;5032613;28;20033;-69
2023/12/09 07:04:02;;;;;;;18.15;6.93;;;;;;;4.63;100.00;100649.41;5041394;28;20033;-69
2023/12/09 07:06:29;;;;;;;18.98;5.32;;;;;;;4.80;100.00;100659.00;5037768;28;20033;-69
2023/12/09 07:08:58;;;;;;;37.30;5.78;;;;;;;4.73;100.00;100644.78;5036938;28;20044;-69
2023/12/09 07:11:23;;;;;;;13.15;5.15;;;;;;;4.67;100.00;100616.41;5035600;28;20599;-69
2023/12/09 07:13:49;;;;;;;16.75;4.70;;;;;;;4.65;100.00;100604.34;5022540;28;20053;-69
2023/12/09 07:16:15;;;;;;;12.95;5.10;;;;;;;4.83;100.00;100615.59;5045829;28;20029;-69
2023/12/09 07:18:46;;;;;;;15.30;4.72;;;;;;;4.75;100.00;100586.53;5039541;28;20033;-68
2023/12/09 07:21:14;;;;;;;16.52;5.53;;;;;;;4.72;100.00;100586.88;5034215;28;20431;-68
2023/12/09 07:23:40;;;;;;;17.33;3.78;;;;;;;4.92;100.00;100611.94;5031346;28;20121;-68
2023/12/09 07:26:06;;;;;;;14.82;4.63;;;;;;;4.87;100.00;100595.75;5036851;28;20037;-71
2023/12/09 07:28:32;;;;;;;18.52;4.82;;;;;;;4.97;100.00;100604.34;5037146;28;20064;-71
2023/12/09 07:30:57;;;;;;;19.38;5.82;;;;;;;4.98;100.00;100615.75;5037151;28;20501;-71
2023/12/09 07:33:23;;;;;;;16.13;4.88;;;;;;;5.01;100.00;100616.25;5021407;28;20060;-71
2023/12/09 07:35:48;;;;;;;17.50;4.10;;;;;;;5.05;100.00;100614.09;5023163;28;20041;-74
2023/12/09 07:38:14;;;;;;;11.02;4.20;;;;;;;5.09;100.00;100618.06;5039814;28;20108;-74
2023/12/09 07:40:39;;;;;;;7.70;3.03;;;;;;;5.11;100.00;100621.38;5040907;28;20084;-74
2023/12/09 07:43:06;;;;;;;38.65;6.10;;;;;;;5.13;100.00;100615.91;5038812;28;20064;-73
2023/12/09 07:45:32;;;;;;;10.93;3.47;;;;;;;5.12;100.00;100607.16;5044126;28;20036;-74
2023/12/09 07:47:57;;;;;;;16.60;5.25;;;;;;;5.14;100.00;100605.16;5038503;28;20029;-74
2023/12/09 07:50:22;;;;;;;19.35;4.28;;;;;;;5.18;100.00;100595.88;5036261;28;20057;-74
2023/12/09 07:52:48;;;;;;;13.88;3.38;;;;;;;5.18;100.00;100593.25;5040453;28;20030;-73
2023/12/09 07:55:14;;;;;;;11.65;3.70;;;;;;;5.25;100.00;100577.56;5031933;28;20116;-73
2023/12/09 07:57:39;;;;;;;21.15;5.32;;;;;;;5.22;100.00;100560.22;5036593;28;20037;-75
2023/12/09 08:00:05;;;;;;;11.25;5.30;;;;;;;5.32;100.00;100575.03;5046089;28;20048;-73
2023/12/09 08:02:31;;;;;;;20.17;3.80;;;;;;;5.32;100.00;100569.75;5044464;28;20098;-73
2023/12/09 08:04:56;;;;;;;14.45;5.28;;;;;;;5.34;100.00;100557.19;5036365;28;20025;-73
2023/12/09 08:07:21;;;;;;;13.40;4.13;;;;;;;5.36;100.00;100569.25;5033389;28;20060;-73
2023/12/09 08:09:47;;;;;;;14.10;3.88;;;;;;;5.39;100.00;100570.72;5037176;28;20195;-73
2023/12/09 08:12:12;;;;;;;19.73;5.00;;;;;;;5.38;100.00;100563.81;5043278;28;20039;-73
2023/12/09 08:14:38;;;;;;;23.35;4.45;;;;;;;5.39;100.00;100554.88;5040360;28;20057;-73
2023/12/09 08:17:03;;;;;;;18.05;4.03;;;;;;;5.42;100.00;100557.16;5021623;28;20123;-73
2023/12/09 08:19:29;;;;;;;14.15;3.60;;;;;;;5.42;100.00;100547.44;5040948;28;20120;-73
2023/12/09 08:21:54;;;;;;;13.63;4.40;;;;;;;5.51;100.00;100561.44;5041820;28;20460;-73
2023/12/09 08:24:20;;;;;;;11.27;4.22;;;;;;;5.56;100.00;100558.31;5044876;28;20427;-73
2023/12/09 08:26:45;;;;;;;9.13;3.88;;;;;;;5.57;100.00;100555.47;5039109;28;20033;-73
2023/12/09 08:29:14;;;;;;;14.02;4.55;;;;;;;5.57;100.00;100550.16;5037422;28;20025;-73
2023/12/09 08:31:39;;;;;;;13.18;4.40;;;;;;;5.60;100.00;100560.41;5022344;28;20051;-74
2023/12/09 08:34:05;;;;;;;15.98;4.03;;;;;;;5.62;100.00;100561.06;5018003;28;20029;-73
2023/12/09 08:36:30;;;;;;;16.75;3.80;;;;;;;5.64;100.00;100563.56;5034643;28;20041;-73
2023/12/09 08:38:55;;;;;;;11.20;3.53;;;;;;;5.66;100.00;100548.34;5040332;28;20128;-73
2023/12/09 08:41:21;;;;;;;11.13;3.90;;;;;;;5.65;100.00;100539.56;5042686;28;20112;-73
2023/12/09 08:43:46;;;;;;;14.35;4.05;;;;;;;5.77;100.00;100541.84;5037278;28;20396;-73
2023/12/09 08:46:12;;;;;;;12.68;3.67;;;;;;;5.80;100.00;100541.50;5015621;28;20037;-73
2023/12/09 08:48:37;;;;;;;9.48;3.05;;;;;;;5.86;100.00;100536.31;5032447;28;20514;-73
2023/12/09 08:51:03;;;;;;;18.98;5.40;;;;;;;5.90;100.00;100531.50;5034243;28;20036;-73
2023/12/09 08:53:29;;;;;;;6.35;2.85;;;;;;;5.91;100.00;100528.69;5026987;28;20047;-73
2023/12/09 08:55:54;;;;;;;20.02;5.35;;;;;;;5.98;100.00;100528.03;5041716;28;20025;-73
2023/12/09 08:58:20;;;;;;;11.23;2.78;;;;;;;6.03;100.00;100521.22;5039026;28;20967;-73
2023/12/09 09:00:45;;;;;;;16.63;6.00;;;;;;;6.08;100.00;100523.34;5043312;28;20329;-73
2023/12/09 09:03:11;;;;;;;12.70;3.25;;;;;;;6.12;100.00;100519.31;5040592;28;20033;-73
2023/12/09 09:05:36;;;;;;;11.23;4.00;;;;;;;6.06;100.00;100502.31;5041060;28;20046;-72
2023/12/09 09:08:01;;;;;;;12.25;3.38;;;;;;;6.18;100.00;100507.19;5037034;28;20037;-71
2023/12/09 09:10:26;;;;;;;10.18;3.33;;;;;;;6.21;100.00;100505.03;5034754;28;20106;-71
2023/12/09 09:12:52;;;;;;;14.00;4.18;;;;;;;6.25;100.00;100501.03;5016082;28;20195;-73
2023/12/09 09:15:19;;;;;;;6.88;3.30;;;;;;;6.30;100.00;100487.25;5029257;28;20029;-74
2023/12/09 09:17:44;;;;;;;12.52;3.75;;;;;;;6.33;100.00;100476.31;5042920;28;20072;-71
2023/12/09 09:20:10;;;;;;;11.25;3.35;;;;;;;6.36;100.00;100465.34;5039313;28;20053;-71
2023/12/09 09:22:35;;;;;;;9.88;2.78;;;;;;;6.36;100.00;100455.56;5040678;28;20043;-75
2023/12/09 09:25:02;;;;;;;10.80;3.70;;;;;;;6.39;100.00;100445.63;5035686;28;20083;-75
2023/12/09 09:27:28;;;;;;;12.63;3.25;;;;;;;6.42;100.00;100424.06;5030772;28;20033;-74
2023/12/09 09:29:53;;;;;;;8.18;2.50;;;;;;;6.44;100.00;100422.06;5027695;28;20028;-74
2023/12/09 09:32:19;;;;;;;18.65;4.38;;;;;;;6.45;100.00;100407.84;5027181;28;20124;-74
2023/12/09 09:34:44;;;;;;;11.13;2.72;;;;;;;6.45;100.00;100408.66;5045830;28;20025;-74
2023/12/09 09:37:10;;;;;;;9.90;2.25;;;;;;;6.48;100.00;100404.81;5045787;28;20431;-74
2023/12/09 09:39:35;;;;;;;11.18;2.97;;;;;;;6.47;100.00;100409.31;5045547;28;20071;-74
2023/12/09 09:42:08;;;;;;;5.95;2.78;;;;;;;6.49;100.00;100406.47;5045209;28;20040;-74
2023/12/09 09:44:38;;;;;;;13.35;2.55;;;;;;;6.54;100.00;100422.63;5011041;28;20048;-74
2023/12/09 09:47:04;;;;;;;11.05;2.25;;;;;;;6.56;100.00;100407.38;5034315;28;20112;-74
2023/12/09 09:49:31;;;;;;;10.18;2.72;;;;;;;6.57;100.00;100395.78;5044395;28;20537;-74
2023/12/09 09:51:57;;;;;;;13.07;2.72;;;;;;;6.54;100.00;100389.00;5026717;28;20030;-74
2023/12/09 09:54:30;;;;;;;14.63;3.45;;;;;;;6.60;100.00;100392.75;5026638;28;20171;-74
2023/12/09 09:56:58;;;;;;;11.02;2.90;;;;;;;6.59;100.00;100388.47;5045996;28;20025;-74
2023/12/09 09:59:25;;;;;;;17.10;3.55;;;;;;;6.62;100.00;100388.09;5046605;28;20480;-74
2023/12/09 10:01:50;;;;;;;7.93;2.90;;;;;;;6.65;100.00;100381.63;5041817;28;20104;-74
2023/12/09 10:04:16;;;;;;;7.25;2.65;;;;;;;6.70;100.00;100377.41;5026597;28;20033;-75
2023/12/09 10:06:43;;;;;;;8.77;2.17;;;;;;;6.67;100.00;100348.63;5027378;28;20025;-74
2023/12/09 10:09:08;;;;;;;10.75;2.60;;;;;;;6.77;100.00;100357.13;5009296;28;20037;-74
2023/12/09 10:11:33;;;;;;;6.88;3.00;;;;;;;6.86;100.00;100333.19;5026941;28;20123;-74
2023/12/09 10:13:59;;;;;;;12.77;5.00;;;;;;;6.92;100.00;100321.84;5033373;28;20456;-74
2023/12/09 10:16:24;;;;;;;11.18;3.13;;;;;;;6.98;100.00;100313.97;5045634;28;20035;-75
2023/12/09 10:18:49;;;;;;;9.02;3.47;;;;;;;7.00;100.00;100296.03;5046200;28;20025;-75
2023/12/09 10:21:15;;;;;;;7.45;2.53;;;;;;;7.02;100.00;100283.44;5045510;28;20468;-74
2023/12/09 10:23:43;;;;;;;6.75;2.40;;;;;;;7.05;100.00;100279.56;5046198;28;20039;-75
2023/12/09 10:26:09;;;;;;;9.57;2.80;;;;;;;7.07;100.00;100271.41;5045614;28;20480;-74
2023/12/09 10:28:35;;;;;;;7.72;3.05;;;;;;;7.06;100.00;100251.22;5034906;28;20040;-74
2023/12/09 10:31:01;;;;;;;9.02;2.17;;;;;;;7.13;100.00;100255.59;5033558;28;20029;-74
2023/12/09 10:33:31;;;;;;;12.13;2.75;;;;;;;7.16;100.00;100246.44;5042999;28;20433;-74
2023/12/09 10:35:57;;;;;;;7.07;3.05;;;;;;;7.20;100.00;100243.22;5039860;28;20035;-75
2023/12/09 10:38:22;;;;;;;25.30;4.53;;;;;;;7.20;100.00;100227.31;5033539;28;20029;-74
2023/12/09 10:40:49;;;;;;;6.18;2.47;;;;;;;7.23;100.00;100218.97;5029660;28;20561;-74
2023/12/09 10:43:15;;;;;;;8.55;2.78;;;;;;;7.24;100.00;100215.28;5025642;28;20094;-76
2023/12/09 10:45:41;;;;;;;6.63;1.67;;;;;;;7.28;100.00;100220.22;5042946;28;20078;-75
2023/12/09 10:48:07;;;;;;;7.63;1.55;;;;;;;7.28;100.00;100209.59;5045726;28;20383;-74
2023/12/09 10:50:33;;;;;;;17.30;5.22;;;;;;;7.27;100.00;100203.50;5044242;28;20063;-76
2023/12/09 10:52:59;;;;;;;4.93;1.90;;;;;;;7.30;100.00;100196.97;5041194;28;20040;-74
2023/12/09 10:55:25;;;;;;;5.40;1.80;;;;;;;7.32;100.00;100174.56;5037531;28;20041;-74
2023/12/09 10:57:51;;;;;;;5.90;1.70;;;;;;;7.31;100.00;100167.63;5037814;28;20481;-74
2023/12/09 11:00:18;;;;;;;3.15;1.65;;;;;;;7.31;100.00;100151.72;5045448;28;20037;-74
2023/12/09 11:02:45;;;;;;;2.97;2.08;;;;;;;7.32;100.00;100142.72;5045833;28;20033;-74
2023/12/09 11:05:11;;;;;;;11.80;2.00;;;;;;;7.28;100.00;100128.19;5045035;28;20591;-74
2023/12/09 11:07:38;;;;;;;5.65;2.15;;;;;;;7.20;100.00;100123.03;5045540;28;20079;-74
2023/12/09 11:10:06;;;;;;;8.82;2.05;;;;;;;7.21;100.00;100124.69;5045286;28;21027;-74